Time;durP1;ratioP1;P1;durP2;ratioP2;P2;SDS_P1;SDS_P2;PMS_P1;PMS_P2;Temp;Humidity;BMP_temperature;BMP_pressure;BME280_temperature;BME280_humidity;BME280_pressure;Samples;Min_cycle;Max_cycle;Signal;HPM_P1;HPM_P2
2023/05/24 00:49:27;;;;;;;0.20;0.20;;;9.10;99.90;;;;;;4874697;29;20088;-83
2023/05/24 00:59:14;;;;;;;0.20;0.20;;;9.60;99.90;;;;;;4889345;23;20059;-83
2023/05/24 01:02:33;;;;;;;0.10;0.10;;;8.80;99.90;;;;;;4868761;29;20060;-83
2023/05/24 01:13:32;;;;;;;0.10;0.10;;;9.50;99.90;;;;;;4876451;29;20044;-83
2023/05/24 01:34:12;;;;;;;0.20;0.20;;;9.50;99.90;;;;;;5086446;23;20049;-82
2023/05/24 01:53:51;;;;;;;0.20;0.20;;;10.60;99.90;;;;;;4875235;29;20048;-82
2023/05/24 01:56:19;;;;;;;0.10;0.10;;;9.70;99.90;;;;;;4878667;29;20053;-82
2023/05/24 02:02:14;;;;;;;0.20;0.20;;;9.70;99.90;;;;;;4890886;29;20111;-83
2023/05/24 02:04:41;;;;;;;0.20;0.20;;;9.70;99.90;;;;;;4896986;29;20056;-83
2023/05/24 02:10:02;;;;;;;0.10;0.10;;;9.70;99.90;;;;;;4884890;23;20409;-82
2023/05/24 02:12:46;;;;;;;0.20;0.20;;;10.50;99.90;;;;;;4872886;29;20113;-82
2023/05/24 02:15:34;;;;;;;0.20;0.20;;;9.70;99.90;;;;;;4875990;29;20057;-82
2023/05/24 02:21:19;;;;;;;0.10;0.10;;;9.80;99.90;;;;;;4876061;29;20057;-82
2023/05/24 02:33:42;;;;;;;;;;;9.80;99.90;;;;;;4996822;23;20052;-81
2023/05/24 02:36:12;;;;;;;0.10;0.10;;;7.60;99.90;;;;;;4891611;29;20296;-82
2023/05/24 02:39:40;;;;;;;0.20;0.20;;;9.80;99.90;;;;;;4861838;29;20147;-82
2023/05/24 02:42:45;;;;;;;0.10;0.10;;;9.40;99.90;;;;;;4791482;29;20094;-81
2023/05/24 02:45:51;;;;;;;0.10;0.10;;;9.90;99.90;;;;;;4815629;29;20050;-82
2023/05/24 02:48:26;;;;;;;0.10;0.10;;;9.00;99.90;;;;;;4826950;29;20200;-82
2023/05/24 02:55:23;;;;;;;0.10;0.10;;;9.90;99.90;;;;;;4749552;30;20051;-82
2023/05/24 02:58:03;;;;;;;0.20;0.20;;;9.90;99.90;;;;;;4699207;30;20400;-82
2023/05/24 03:03:57;;;;;;;0.20;0.20;;;9.90;99.90;;;;;;4883822;23;20061;-83
2023/05/24 03:06:38;;;;;;;0.10;0.10;;;10.80;99.90;;;;;;4839628;29;20056;-82
2023/05/24 03:09:06;;;;;;;0.20;0.20;;;10.00;99.90;;;;;;4874014;29;20546;-82
2023/05/24 03:11:53;;;;;;;0.20;0.20;;;10.10;99.90;;;;;;4975213;23;20048;-82
2023/05/24 03:14:21;;;;;;;0.13;0.13;;;10.00;99.90;;;;;;4910608;29;20104;-82
2023/05/24 03:17:25;;;;;;;0.20;0.20;;;10.10;99.90;;;;;;4883098;29;20522;-82
2023/05/24 03:19:51;;;;;;;0.20;0.20;;;10.50;99.90;;;;;;4863028;29;20045;-83
2023/05/24 03:22:18;;;;;;;0.20;0.20;;;10.10;99.90;;;;;;4863981;29;20203;-82
2023/05/24 03:24:46;;;;;;;0.20;0.20;;;10.10;99.90;;;;;;4943479;23;20140;-83
2023/05/24 03:27:39;;;;;;;0.20;0.20;;;10.10;99.90;;;;;;4869564;29;20079;-82
2023/05/24 03:30:23;;;;;;;0.20;0.20;;;10.10;99.90;;;;;;4883910;29;20049;-81
2023/05/24 03:33:01;;;;;;;0.20;0.20;;;10.10;99.90;;;;;;4863033;29;20049;-81
2023/05/24 03:39:24;;;;;;;0.20;0.20;;;10.10;99.90;;;;;;4826470;29;20100;-82
2023/05/24 03:45:46;;;;;;;0.20;0.20;;;9.20;99.90;;;;;;4890742;23;20091;-81
2023/05/24 03:53:10;;;;;;;0.20;0.20;;;10.10;99.90;;;;;;4796418;29;20066;-82
2023/05/24 03:56:10;;;;;;;0.20;0.20;;;10.20;99.90;;;;;;4785248;29;20075;-82
2023/05/24 03:59:25;;;;;;;0.20;0.20;;;10.20;99.90;;;;;;4795100;29;20051;-82
2023/05/24 04:04:57;;;;;;;0.10;0.10;;;10.30;99.90;;;;;;4893363;23;20088;-82
2023/05/24 04:11:26;;;;;;;0.20;0.20;;;10.30;99.90;;;;;;4859219;29;20644;-80
2023/05/24 04:19:27;;;;;;;0.17;0.17;;;10.40;99.90;;;;;;5092716;23;20053;-82
2023/05/24 04:28:07;;;;;;;0.20;0.20;;;10.50;99.90;;;;;;4972860;23;20052;-82
2023/05/24 04:30:34;;;;;;;0.10;0.10;;;10.50;99.90;;;;;;5101520;23;20478;-82
2023/05/24 04:43:14;;;;;;;0.20;0.20;;;9.40;99.90;;;;;;4885710;29;20035;-81
2023/05/24 04:46:05;;;;;;;0.20;0.20;;;10.60;99.90;;;;;;4886884;29;20053;-82
2023/05/24 04:49:18;;;;;;;0.20;0.20;;;10.40;99.90;;;;;;4870749;29;20080;-82
2023/05/24 05:01:33;;;;;;;0.10;0.10;;;10.40;99.90;;;;;;4880527;29;20060;-82
2023/05/24 05:04:08;;;;;;;0.10;0.10;;;10.70;99.90;;;;;;4865922;23;21379;-83
2023/05/24 05:07:15;;;;;;;0.10;0.10;;;10.60;99.90;;;;;;4848577;29;20086;-84
2023/05/24 05:12:45;;;;;;;0.10;0.10;;;10.70;99.90;;;;;;4892189;23;20136;-82
2023/05/24 05:15:14;;;;;;;0.20;0.20;;;10.70;99.90;;;;;;4882088;29;20053;-81
2023/05/24 05:21:38;;;;;;;0.10;0.10;;;12.10;99.90;;;;;;5061004;23;20537;-80
2023/05/24 05:24:04;;;;;;;0.10;0.10;;;11.00;99.90;;;;;;4876941;23;20371;-82
2023/05/24 05:26:36;;;;;;;0.10;0.10;;;10.90;99.90;;;;;;4858591;29;20058;-83
2023/05/24 05:29:02;;;;;;;0.17;0.17;;;11.00;99.90;;;;;;5046839;23;20067;-81
2023/05/24 05:32:15;;;;;;;0.20;0.20;;;11.00;99.90;;;;;;4862649;29;20092;-82
2023/05/24 05:34:52;;;;;;;0.10;0.10;;;11.10;99.90;;;;;;4875075;29;20302;-81
2023/05/24 05:37:18;;;;;;;0.20;0.20;;;12.00;99.90;;;;;;4865032;29;20486;-82
2023/05/24 05:40:09;;;;;;;0.20;0.20;;;11.10;99.90;;;;;;5258310;23;20059;-82
2023/05/24 05:45:27;;;;;;;0.20;0.20;;;11.20;99.90;;;;;;4886331;23;20418;-83
2023/05/24 05:47:53;;;;;;;0.20;0.20;;;11.30;99.90;;;;;;4883176;29;20108;-82
2023/05/24 05:50:25;;;;;;;0.10;0.10;;;11.30;99.90;;;;;;5029149;23;20057;-83
2023/05/24 05:55:24;;;;;;;0.20;0.20;;;11.40;99.90;;;;;;4893566;23;20057;-80
2023/05/24 05:57:59;;;;;;;0.20;0.20;;;11.40;99.90;;;;;;4859289;29;20218;-83
2023/05/24 06:00:43;;;;;;;0.10;0.10;;;11.40;99.90;;;;;;4859579;29;20120;-82
2023/05/24 06:05:48;;;;;;;0.10;0.10;;;11.60;99.90;;;;;;4877856;29;20425;-82
2023/05/24 06:08:14;;;;;;;0.20;0.20;;;11.60;99.90;;;;;;4866405;29;20060;-83
2023/05/24 06:10:40;;;;;;;0.10;0.10;;;11.60;99.90;;;;;;4864351;29;20060;-81
2023/05/24 06:13:06;;;;;;;0.20;0.20;;;11.70;99.90;;;;;;4878984;29;20049;-83
2023/05/24 06:16:02;;;;;;;0.10;0.10;;;11.70;99.90;;;;;;4874388;29;20053;-84
2023/05/24 06:18:29;;;;;;;0.20;0.20;;;11.70;99.90;;;;;;4861112;29;20053;-83
2023/05/24 06:21:14;;;;;;;0.20;0.20;;;11.70;99.90;;;;;;4876655;29;20309;-82
2023/05/24 06:23:43;;;;;;;0.20;0.20;;;11.70;99.90;;;;;;4857600;29;20073;-85
2023/05/24 06:26:09;;;;;;;0.20;0.20;;;11.60;99.90;;;;;;4860608;29;20080;-82
2023/05/24 06:29:12;;;;;;;0.20;0.20;;;11.80;99.90;;;;;;4867748;29;20060;-81
2023/05/24 06:31:38;;;;;;;0.20;0.20;;;11.70;99.90;;;;;;4870668;29;20041;-82
2023/05/24 06:34:04;;;;;;;0.20;0.20;;;11.90;99.90;;;;;;4865398;29;20057;-81
2023/05/24 06:36:51;;;;;;;0.20;0.20;;;11.90;99.90;;;;;;4878140;29;20109;-81
2023/05/24 06:39:17;;;;;;;0.10;0.10;;;11.80;99.90;;;;;;4873221;29;20081;-81
2023/05/24 06:42:07;;;;;;;0.20;0.20;;;12.00;99.90;;;;;;4876322;29;20048;-84
2023/05/24 06:44:33;;;;;;;0.10;0.10;;;12.00;99.90;;;;;;4862814;29;20151;-82
2023/05/24 06:47:11;;;;;;;0.13;0.13;;;12.40;99.90;;;;;;4860639;29;20136;-83
2023/05/24 06:49:49;;;;;;;0.10;0.10;;;12.00;99.90;;;;;;4874629;29;20053;-87
2023/05/24 06:52:15;;;;;;;0.10;0.10;;;12.20;99.90;;;;;;4877282;29;20077;-88
2023/05/24 06:54:50;;;;;;;0.10;0.10;;;12.30;99.90;;;;;;4860771;29;20186;-84
2023/05/24 06:57:16;;;;;;;0.10;0.10;;;12.30;99.90;;;;;;4861362;29;20057;-85
2023/05/24 06:59:42;;;;;;;0.20;0.20;;;12.60;99.90;;;;;;4875331;29;20518;-86
2023/05/24 07:02:28;;;;;;;0.20;0.20;;;12.40;99.90;;;;;;4860325;29;20162;-83
2023/05/24 07:04:53;;;;;;;0.20;0.20;;;12.40;99.90;;;;;;4876429;29;20056;-85
2023/05/24 07:07:20;;;;;;;0.20;0.20;;;12.40;99.90;;;;;;4875491;29;21373;-86
2023/05/24 07:09:46;;;;;;;0.15;0.15;;;12.50;99.90;;;;;;4857636;29;20049;-87
2023/05/24 07:12:12;;;;;;;0.20;0.20;;;12.50;99.90;;;;;;4859917;29;20186;-87
2023/05/24 07:14:37;;;;;;;0.10;0.10;;;12.50;99.90;;;;;;4860400;29;20155;-86
2023/05/24 07:17:03;;;;;;;0.20;0.20;;;12.60;99.90;;;;;;4877856;29;20057;-85
2023/05/24 07:19:29;;;;;;;0.10;0.10;;;12.60;99.90;;;;;;4862706;29;20506;-85
2023/05/24 07:21:55;;;;;;;0.20;0.20;;;12.60;99.90;;;;;;4888429;29;20419;-87
2023/05/24 07:24:22;;;;;;;0.20;0.20;;;12.70;99.90;;;;;;4861896;29;20128;-85
2023/05/24 07:26:49;;;;;;;0.20;0.20;;;12.70;99.90;;;;;;4877852;29;20059;-85
2023/05/24 07:29:17;;;;;;;0.13;0.13;;;12.80;99.90;;;;;;4861962;29;20044;-85
2023/05/24 07:31:43;;;;;;;0.20;0.20;;;12.80;99.90;;;;;;4860767;29;20089;-87
2023/05/24 07:34:08;;;;;;;0.20;0.20;;;12.80;99.90;;;;;;4858782;29;20069;-85
2023/05/24 07:36:34;;;;;;;0.20;0.20;;;12.80;99.90;;;;;;4862235;29;20049;-84
2023/05/24 07:39:01;;;;;;;0.10;0.10;;;12.90;99.90;;;;;;4874108;29;20048;-86
2023/05/24 07:41:27;;;;;;;0.10;0.10;;;12.90;99.90;;;;;;4851910;29;20113;-88
2023/05/24 07:43:56;;;;;;;0.20;0.20;;;13.00;99.90;;;;;;4885047;29;20070;-87
2023/05/24 07:46:21;;;;;;;0.15;0.15;;;12.90;99.90;;;;;;4875683;29;20052;-86
2023/05/24 07:48:47;;;;;;;0.10;0.10;;;12.90;99.90;;;;;;4854556;29;20049;-86
2023/05/24 07:51:13;;;;;;;0.20;0.20;;;12.90;99.90;;;;;;4873905;29;20052;-84
2023/05/24 07:53:42;;;;;;;0.10;0.10;;;12.90;99.90;;;;;;4857001;29;20053;-83
2023/05/24 07:56:08;;;;;;;0.20;0.20;;;12.90;99.90;;;;;;4873402;29;20076;-84
2023/05/24 07:58:34;;;;;;;0.10;0.10;;;12.90;99.90;;;;;;4877286;29;20044;-83
2023/05/24 08:01:00;;;;;;;0.20;0.20;;;13.00;99.90;;;;;;4880620;29;20044;-83
2023/05/24 08:03:28;;;;;;;0.20;0.20;;;13.00;99.90;;;;;;4876601;29;20486;-83
2023/05/24 08:05:54;;;;;;;0.20;0.20;;;12.90;99.90;;;;;;4860566;29;20065;-85
2023/05/24 08:08:20;;;;;;;0.17;0.17;;;12.90;99.90;;;;;;4859532;29;20056;-84
2023/05/24 08:10:45;;;;;;;0.20;0.20;;;12.90;99.90;;;;;;4891581;29;20049;-86
2023/05/24 08:13:12;;;;;;;0.52;0.20;;;13.00;99.90;;;;;;4882689;29;20578;-86
2023/05/24 08:15:37;;;;;;;0.20;0.20;;;13.00;99.90;;;;;;4851864;29;20053;-84
2023/05/24 08:18:04;;;;;;;0.10;0.10;;;13.00;99.90;;;;;;4853050;29;20800;-85
2023/05/24 08:20:30;;;;;;;0.20;0.20;;;13.00;99.90;;;;;;4853496;29;20139;-86
2023/05/24 08:22:55;;;;;;;0.20;0.20;;;13.00;99.90;;;;;;4851622;29;20144;-85
2023/05/24 08:25:24;;;;;;;0.20;0.20;;;13.00;99.90;;;;;;4850610;29;20061;-84
2023/05/24 08:27:50;;;;;;;0.20;0.20;;;13.10;99.90;;;;;;4850892;29;20080;-85
2023/05/24 08:30:17;;;;;;;0.20;0.20;;;13.10;99.90;;;;;;4870933;29;20045;-85
2023/05/24 08:32:42;;;;;;;0.10;0.10;;;13.10;99.90;;;;;;4872251;29;20494;-90
2023/05/24 08:35:08;;;;;;;0.20;0.20;;;13.10;99.90;;;;;;4871517;29;20068;-85
2023/05/24 08:37:34;;;;;;;0.20;0.20;;;13.10;99.90;;;;;;4856416;29;20469;-88
2023/05/24 08:40:00;;;;;;;0.20;0.20;;;13.10;99.90;;;;;;4877109;29;20033;-86
2023/05/24 08:42:31;;;;;;;0.20;0.20;;;13.20;99.90;;;;;;4855545;29;20053;-84
2023/05/24 08:45:02;;;;;;;0.20;0.20;;;13.90;99.90;;;;;;4872105;29;20124;-85
2023/05/24 08:47:30;;;;;;;0.13;0.13;;;13.20;99.90;;;;;;4856278;29;20092;-85
2023/05/24 08:49:56;;;;;;;0.10;0.10;;;13.20;99.90;;;;;;4874587;29;20053;-88
2023/05/24 08:52:22;;;;;;;0.20;0.20;;;13.20;99.90;;;;;;4859798;29;20041;-86
2023/05/24 08:54:48;;;;;;;0.20;0.20;;;13.20;99.90;;;;;;4859126;29;20087;-85
2023/05/24 08:57:15;;;;;;;0.10;0.10;;;13.30;99.90;;;;;;4875343;29;20460;-85
2023/05/24 08:59:41;;;;;;;0.20;0.20;;;13.30;99.90;;;;;;4855557;29;20145;-85
2023/05/24 09:02:10;;;;;;;0.10;0.10;;;13.30;99.90;;;;;;4876983;29;20132;-86
2023/05/24 09:04:39;;;;;;;0.10;0.10;;;13.30;99.90;;;;;;4859179;29;20402;-88
2023/05/24 09:07:06;;;;;;;0.10;0.10;;;13.30;99.90;;;;;;4857015;29;20041;-82
2023/05/24 09:09:34;;;;;;;0.20;0.20;;;13.40;99.90;;;;;;4859718;29;20053;-85
2023/05/24 09:12:20;;;;;;;0.20;0.20;;;13.40;99.90;;;;;;4883067;23;20053;-87
2023/05/24 09:15:11;;;;;;;0.10;0.10;;;13.40;99.90;;;;;;4870236;29;20049;-87
2023/05/24 09:17:39;;;;;;;0.30;0.30;;;13.40;99.90;;;;;;4871178;29;20045;-84
2023/05/24 09:20:09;;;;;;;0.20;0.20;;;13.40;99.90;;;;;;4869953;29;20065;-87
2023/05/24 09:22:42;;;;;;;0.10;0.10;;;13.30;99.90;;;;;;4893357;29;20032;-86
2023/05/24 09:25:11;;;;;;;0.10;0.10;;;13.30;99.90;;;;;;4873488;29;20051;-88
2023/05/24 09:27:37;;;;;;;0.10;0.10;;;13.30;99.90;;;;;;4877573;29;20469;-85
2023/05/24 09:30:09;;;;;;;0.10;0.10;;;13.20;99.90;;;;;;4874486;29;20064;-85
2023/05/24 09:32:35;;;;;;;0.10;0.10;;;13.20;99.90;;;;;;4893027;29;20519;-88
2023/05/24 09:35:01;;;;;;;0.20;0.20;;;13.10;99.90;;;;;;4872507;29;20289;-87
2023/05/24 09:37:30;;;;;;;0.10;0.10;;;13.10;99.90;;;;;;4881619;29;20049;-86
2023/05/24 09:39:56;;;;;;;0.20;0.20;;;13.10;99.90;;;;;;4861939;29;20081;-86
2023/05/24 09:42:25;;;;;;;0.10;0.10;;;13.10;99.90;;;;;;4880535;29;20045;-85
2023/05/24 09:45:06;;;;;;;0.20;0.20;;;13.10;99.90;;;;;;4864094;29;20045;-86
2023/05/24 09:47:33;;;;;;;0.20;0.20;;;13.20;99.90;;;;;;4880616;29;20154;-89
2023/05/24 09:50:02;;;;;;;0.10;0.10;;;13.20;99.90;;;;;;4902698;29;20052;-88
2023/05/24 09:52:27;;;;;;;0.13;0.13;;;13.30;99.90;;;;;;4878339;29;20052;-87
2023/05/24 09:54:53;;;;;;;0.20;0.20;;;13.50;99.90;;;;;;4866563;29;20060;-88
2023/05/24 09:57:22;;;;;;;0.20;0.20;;;13.50;99.90;;;;;;4897698;29;20472;-88
2023/05/24 09:59:51;;;;;;;0.20;0.20;;;13.70;99.90;;;;;;4883222;29;20056;-86
2023/05/24 10:02:22;;;;;;;0.10;0.10;;;13.80;99.90;;;;;;4881508;29;20045;-87
2023/05/24 10:04:56;;;;;;;;;;;13.80;99.90;;;;;;4863806;29;20052;-87
2023/05/24 10:07:21;;;;;;;0.10;0.10;;;13.90;99.90;;;;;;4893307;29;20364;-89
2023/05/24 10:09:47;;;;;;;0.10;0.10;;;14.00;99.90;;;;;;4876763;29;20044;-85
2023/05/24 10:12:13;;;;;;;0.20;0.20;;;14.00;99.90;;;;;;4864288;29;20061;-87
2023/05/24 10:14:39;;;;;;;0.20;0.20;;;14.10;99.90;;;;;;4891383;29;20151;-87
2023/05/24 10:17:07;;;;;;;0.10;0.10;;;14.20;99.90;;;;;;4865190;29;20090;-88
2023/05/24 10:19:34;;;;;;;0.17;0.17;;;14.30;99.90;;;;;;4883787;29;20049;-87
2023/05/24 10:22:05;;;;;;;0.20;0.20;;;14.30;99.90;;;;;;4875108;29;20075;-90
2023/05/24 10:24:45;;;;;;;0.17;0.17;;;14.40;99.90;;;;;;4892581;29;20044;-89
2023/05/24 10:27:23;;;;;;;0.15;0.15;;;14.50;99.90;;;;;;4870029;29;20064;-88
2023/05/24 10:30:10;;;;;;;0.20;0.20;;;14.50;99.90;;;;;;4878184;29;20363;-87
2023/05/24 10:32:37;;;;;;;0.10;0.10;;;14.50;99.90;;;;;;4897105;29;20151;-86
2023/05/24 10:35:05;;;;;;;0.10;0.10;;;14.50;99.90;;;;;;4896604;29;20083;-89
2023/05/24 10:37:31;;;;;;;0.20;0.20;;;14.40;99.90;;;;;;4870222;29;20044;-88
2023/05/24 10:39:59;;;;;;;0.20;0.20;;;14.30;99.90;;;;;;4864859;29;20049;-87
2023/05/24 10:42:30;;;;;;;0.20;0.20;;;14.30;99.90;;;;;;4891246;29;20052;-89
2023/05/24 10:44:56;;;;;;;0.20;0.20;;;14.10;99.90;;;;;;4861183;29;20053;-86
2023/05/24 10:47:27;;;;;;;0.20;0.20;;;14.10;99.90;;;;;;4863805;29;20131;-88
2023/05/24 10:49:58;;;;;;;0.17;0.17;;;14.00;99.90;;;;;;4896009;29;20048;-88
2023/05/24 10:52:32;;;;;;;;;;;14.00;99.90;;;;;;4883465;29;20081;-90
2023/05/24 10:57:26;;;;;;;0.20;0.20;;;13.90;99.90;;;;;;4911113;23;20057;-87
2023/05/24 10:59:56;;;;;;;0.20;0.20;;;13.90;99.90;;;;;;4887615;29;20094;-88
2023/05/24 11:02:21;;;;;;;0.20;0.20;;;14.00;99.90;;;;;;4861083;29;20112;-87
2023/05/24 11:04:48;;;;;;;0.20;0.20;;;14.20;99.90;;;;;;4861556;29;20045;-85
2023/05/24 11:07:19;;;;;;;0.20;0.20;;;14.10;99.90;;;;;;4860415;29;20102;-90
2023/05/24 11:09:51;;;;;;;0.10;0.10;;;14.00;99.90;;;;;;4877189;29;20060;-85
2023/05/24 11:12:19;;;;;;;0.10;0.10;;;13.90;99.90;;;;;;4859989;29;20108;-87
2023/05/24 11:14:50;;;;;;;0.20;0.20;;;13.90;99.90;;;;;;4860479;29;20052;-86
2023/05/24 11:17:20;;;;;;;;;;;13.90;99.90;;;;;;4879854;29;20569;-87
2023/05/24 11:19:51;;;;;;;0.20;0.20;;;13.90;99.90;;;;;;4860997;29;19919;-87
2023/05/24 11:22:22;;;;;;;0.10;0.10;;;13.90;99.90;;;;;;4877048;29;20505;-88
2023/05/24 11:24:48;;;;;;;0.20;0.20;;;13.90;99.90;;;;;;4859910;29;20049;-87
2023/05/24 11:27:13;;;;;;;0.10;0.10;;;14.00;99.90;;;;;;4886382;23;20044;-87
2023/05/24 11:29:53;;;;;;;0.20;0.20;;;14.00;99.90;;;;;;4887302;29;20534;-87
2023/05/24 11:32:20;;;;;;;0.10;0.10;;;14.10;99.90;;;;;;4875028;29;20049;-87
2023/05/24 11:35:08;;;;;;;0.10;0.10;;;14.10;99.90;;;;;;4878758;29;20116;-86
2023/05/24 11:37:33;;;;;;;0.20;0.20;;;14.10;99.90;;;;;;4863909;29;20131;-86
2023/05/24 11:40:03;;;;;;;0.10;0.10;;;14.10;99.90;;;;;;4882631;29;20127;-87
2023/05/24 11:42:30;;;;;;;0.20;0.20;;;14.20;99.90;;;;;;4861589;29;20058;-87
2023/05/24 11:44:55;;;;;;;0.20;0.20;;;14.30;99.90;;;;;;4863627;29;20076;-88
2023/05/24 11:47:22;;;;;;;0.10;0.10;;;14.30;99.90;;;;;;4861960;29;20532;-86
2023/05/24 11:49:51;;;;;;;0.20;0.20;;;14.30;99.90;;;;;;4874523;23;20056;-87
2023/05/24 11:52:20;;;;;;;0.20;0.20;;;14.30;99.90;;;;;;4885921;29;20083;-86
2023/05/24 11:54:48;;;;;;;0.20;0.20;;;14.20;99.90;;;;;;4883278;29;20048;-86
2023/05/24 11:57:15;;;;;;;0.10;0.10;;;14.20;99.90;;;;;;4875103;29;20064;-86
2023/05/24 11:59:52;;;;;;;0.20;0.20;;;14.10;99.90;;;;;;4871778;29;20140;-85
2023/05/24 12:02:24;;;;;;;0.20;0.20;;;14.10;99.90;;;;;;4893532;29;20047;-76
2023/05/24 12:04:50;;;;;;;0.10;0.10;;;14.10;99.90;;;;;;4877780;29;20052;-90
2023/05/24 12:07:16;;;;;;;0.10;0.10;;;14.10;99.90;;;;;;4898331;29;20043;-92
2023/05/24 12:09:42;;;;;;;0.10;0.10;;;14.20;99.90;;;;;;4901861;29;20037;-90
2023/05/24 12:12:08;;;;;;;0.15;0.15;;;14.20;99.90;;;;;;4880717;29;20136;-91
2023/05/24 12:14:34;;;;;;;0.20;0.20;;;14.20;99.90;;;;;;4876458;29;20052;-90
2023/05/24 12:17:00;;;;;;;0.15;0.15;;;14.10;99.90;;;;;;4876333;29;20044;-90
2023/05/24 12:19:36;;;;;;;0.10;0.10;;;14.10;99.90;;;;;;4868817;29;20056;-91
2023/05/24 12:22:05;;;;;;;0.10;0.10;;;14.10;99.90;;;;;;4877515;29;20055;-92
2023/05/24 12:24:31;;;;;;;0.15;0.15;;;14.10;99.90;;;;;;4882289;29;20053;-96
2023/05/24 12:27:05;;;;;;;0.20;0.20;;;14.20;99.90;;;;;;4879267;29;20454;-93
2023/05/24 12:29:41;;;;;;;0.10;0.10;;;14.10;99.90;;;;;;4890072;29;20063;-92
2023/05/24 12:32:12;;;;;;;0.10;0.10;;;13.70;99.90;;;;;;4896245;29;20418;-95
2023/05/24 12:34:41;;;;;;;0.10;0.10;;;14.10;99.90;;;;;;4885984;29;20056;-96
2023/05/24 12:37:08;;;;;;;0.20;0.20;;;14.10;99.90;;;;;;4900590;29;20104;-92
2023/05/24 12:39:35;;;;;;;0.17;0.17;;;14.10;99.90;;;;;;4890641;29;20060;-93
2023/05/24 12:42:02;;;;;;;0.20;0.20;;;14.60;99.90;;;;;;4877625;29;20108;-94
2023/05/24 12:44:30;;;;;;;0.20;0.20;;;14.10;99.90;;;;;;4901136;29;20394;-94
2023/05/24 12:46:56;;;;;;;0.10;0.10;;;14.20;99.90;;;;;;4880779;29;20051;-91
2023/05/24 12:49:23;;;;;;;0.10;0.10;;;14.40;99.90;;;;;;4898993;29;20084;-91
2023/05/24 12:51:50;;;;;;;0.20;0.20;;;14.50;99.90;;;;;;4867651;29;20049;-91
2023/05/24 12:54:21;;;;;;;0.10;0.10;;;14.80;99.90;;;;;;4897369;29;20047;-90
2023/05/24 12:56:47;;;;;;;0.20;0.20;;;14.80;99.90;;;;;;4882255;29;20056;-93
2023/05/24 12:59:22;;;;;;;0.10;0.10;;;14.80;99.90;;;;;;4901598;29;20044;-95
2023/05/24 13:01:51;;;;;;;0.10;0.10;;;14.80;99.90;;;;;;4900588;29;20051;-91
2023/05/24 13:04:18;;;;;;;0.20;0.20;;;15.00;99.90;;;;;;4882757;29;20048;-92
2023/05/24 13:06:47;;;;;;;0.17;0.17;;;15.10;99.90;;;;;;4894711;29;20100;-94
2023/05/24 13:09:13;;;;;;;0.10;0.10;;;15.20;99.90;;;;;;4901738;29;20029;-94
2023/05/24 13:11:38;;;;;;;0.10;0.10;;;15.10;99.90;;;;;;4896637;29;20055;-94
2023/05/24 13:14:07;;;;;;;0.10;0.10;;;15.20;99.90;;;;;;4894783;29;20534;-93
2023/05/24 13:16:34;;;;;;;0.20;0.20;;;15.20;99.90;;;;;;4900464;29;20107;-96
2023/05/24 13:19:00;;;;;;;0.10;0.10;;;15.30;99.90;;;;;;4884142;29;20124;-93
2023/05/24 13:21:26;;;;;;;0.17;0.17;;;15.50;99.90;;;;;;4887340;29;20104;-92
2023/05/24 13:23:51;;;;;;;0.20;0.20;;;15.50;99.90;;;;;;4895330;29;20045;-92
2023/05/24 13:26:17;;;;;;;0.20;0.20;;;15.50;99.90;;;;;;4867335;29;20133;-94
2023/05/24 13:28:43;;;;;;;0.10;0.10;;;15.50;99.90;;;;;;4886127;29;20060;-95
2023/05/24 13:31:09;;;;;;;0.10;0.10;;;15.70;99.90;;;;;;4877724;29;20127;-91
2023/05/24 13:33:35;;;;;;;0.20;0.20;;;16.00;99.90;;;;;;4885968;29;20059;-91
2023/05/24 13:36:08;;;;;;;0.10;0.10;;;16.20;99.90;;;;;;4886253;29;20049;-94
2023/05/24 13:38:37;;;;;;;0.20;0.20;;;16.40;99.90;;;;;;4886494;29;20044;-90
2023/05/24 13:41:03;;;;;;;0.10;0.10;;;16.50;99.90;;;;;;4900593;29;20174;-89
2023/05/24 13:43:28;;;;;;;0.20;0.20;;;16.50;99.90;;;;;;4881614;29;20051;-92
2023/05/24 13:46:00;;;;;;;0.10;0.10;;;16.50;99.90;;;;;;4883635;29;20052;-92
2023/05/24 13:48:26;;;;;;;0.20;0.20;;;16.40;99.90;;;;;;4919732;29;20061;-92
2023/05/24 13:50:52;;;;;;;0.10;0.10;;;16.20;99.90;;;;;;4912399;29;20120;-93
2023/05/24 13:53:18;;;;;;;0.10;0.10;;;16.20;99.90;;;;;;4888170;29;20064;-94
2023/05/24 13:55:52;;;;;;;0.17;0.17;;;16.30;99.90;;;;;;4889176;29;20056;-92
2023/05/24 13:58:18;;;;;;;0.20;0.20;;;16.20;99.90;;;;;;4904212;29;20417;-95
2023/05/24 14:00:44;;;;;;;0.10;0.10;;;16.20;99.90;;;;;;4886642;29;20052;-93
2023/05/24 14:03:11;;;;;;;0.20;0.20;;;16.10;99.90;;;;;;4906188;29;20045;-94
2023/05/24 14:05:39;;;;;;;0.20;0.20;;;16.20;99.90;;;;;;4905516;29;20056;-94
2023/05/24 14:08:05;;;;;;;0.10;0.10;;;16.30;99.90;;;;;;4900975;29;20040;-94
2023/05/24 14:10:35;;;;;;;0.20;0.20;;;16.40;99.90;;;;;;4912691;29;20044;-89
2023/05/24 14:13:05;;;;;;;0.20;0.20;;;16.50;99.90;;;;;;4896637;29;20053;-94
2023/05/24 14:15:34;;;;;;;0.10;0.10;;;16.50;99.90;;;;;;4879014;29;20044;-93
2023/05/24 14:18:06;;;;;;;0.20;0.20;;;16.50;99.60;;;;;;4888603;29;20111;-91
2023/05/24 14:20:36;;;;;;;0.20;0.20;;;16.30;99.60;;;;;;4906117;29;20044;-90
2023/05/24 14:23:03;;;;;;;0.20;0.20;;;16.30;99.90;;;;;;4889011;29;20099;-91
2023/05/24 14:25:30;;;;;;;0.20;0.20;;;16.40;99.90;;;;;;4888382;29;20049;-92
2023/05/24 14:27:58;;;;;;;0.10;0.10;;;16.50;99.90;;;;;;4895022;29;20068;-93
2023/05/24 14:30:27;;;;;;;0.17;0.17;;;16.60;99.90;;;;;;4900401;29;20051;-93
2023/05/24 14:32:52;;;;;;;0.20;0.20;;;16.70;99.90;;;;;;4905379;29;20052;-95
2023/05/24 14:35:18;;;;;;;0.10;0.10;;;17.00;99.90;;;;;;4905252;29;20124;-91
2023/05/24 14:37:44;;;;;;;0.20;0.20;;;17.00;99.90;;;;;;4889822;29;20072;-92
2023/05/24 14:40:10;;;;;;;0.20;0.20;;;17.20;99.90;;;;;;4908269;29;20321;-94
2023/05/24 14:42:41;;;;;;;0.20;0.20;;;17.50;99.90;;;;;;4888634;29;20095;-93
2023/05/24 14:45:07;;;;;;;0.15;0.15;;;17.50;99.90;;;;;;4883307;29;20048;-93
2023/05/24 14:47:37;;;;;;;0.20;0.20;;;17.40;99.70;;;;;;4900566;29;20063;-94
2023/05/24 14:50:11;;;;;;;0.10;0.10;;;17.30;99.80;;;;;;4902318;29;20057;-92
2023/05/24 14:52:36;;;;;;;0.10;0.10;;;17.10;99.80;;;;;;4884219;29;20045;-93
2023/05/24 14:55:03;;;;;;;0.20;0.20;;;17.10;99.60;;;;;;4886059;29;20064;-95
2023/05/24 14:57:29;;;;;;;0.20;0.20;;;17.00;99.30;;;;;;4877767;29;20048;-92
2023/05/24 14:59:55;;;;;;;0.10;0.10;;;16.50;99.10;;;;;;4894853;29;20049;-93
2023/05/24 15:02:30;;;;;;;0.20;0.20;;;16.60;99.90;;;;;;4876789;29;20132;-94
2023/05/24 15:04:56;;;;;;;0.20;0.20;;;16.60;99.90;;;;;;4891068;29;20084;-91
2023/05/24 15:07:21;;;;;;;0.17;0.17;;;16.80;99.90;;;;;;4889817;29;20044;-95
2023/05/24 15:09:47;;;;;;;0.20;0.20;;;16.90;99.90;;;;;;4875514;29;20045;-94
2023/05/24 15:12:15;;;;;;;0.20;0.20;;;17.30;99.90;;;;;;4899892;29;20052;-92
2023/05/24 15:14:41;;;;;;;0.20;0.20;;;17.70;99.90;;;;;;4898525;29;20123;-94
2023/05/24 15:17:07;;;;;;;0.20;0.20;;;18.40;99.90;;;;;;4894491;29;20099;-95
2023/05/24 15:19:35;;;;;;;0.20;0.20;;;19.00;99.90;;;;;;4877172;29;20053;-93
2023/05/24 15:22:01;;;;;;;0.20;0.20;;;20.80;99.90;;;;;;4892485;29;20052;-94
2023/05/24 15:24:29;;;;;;;0.20;0.20;;;21.40;99.90;;;;;;4900762;29;20501;-92
2023/05/24 15:26:56;;;;;;;0.20;0.20;;;22.50;99.90;;;;;;4898915;29;20152;-92
2023/05/24 15:29:22;;;;;;;0.20;0.20;;;24.00;99.90;;;;;;4898195;29;20068;-94
2023/05/24 15:31:48;;;;;;;0.20;0.20;;;25.70;99.90;;;;;;4891077;29;20048;-92
2023/05/24 15:34:14;;;;;;;0.20;0.20;;;27.40;99.90;;;;;;4900896;29;20076;-94
2023/05/24 15:36:40;;;;;;;0.20;0.20;;;29.10;99.90;;;;;;4880643;29;20087;-94
2023/05/24 15:39:06;;;;;;;0.20;0.20;;;30.50;97.70;;;;;;4904988;29;20044;-92
2023/05/24 15:41:32;;;;;;;0.20;0.20;;;32.40;94.00;;;;;;4877950;29;20049;-92
2023/05/24 15:43:59;;;;;;;0.20;0.20;;;32.90;93.60;;;;;;4882735;29;20048;-90
2023/05/24 15:46:28;;;;;;;0.20;0.20;;;34.00;91.00;;;;;;4908270;29;20048;-92
2023/05/24 15:48:56;;;;;;;0.20;0.20;;;34.80;86.90;;;;;;4901714;29;20438;-94
2023/05/24 15:51:25;;;;;;;0.20;0.20;;;35.70;83.00;;;;;;4905305;29;20103;-93
2023/05/24 15:54:09;;;;;;;0.20;0.20;;;36.20;79.80;;;;;;4889638;29;20755;-78
2023/05/24 15:59:38;;;;;;;0.20;0.20;;;37.60;71.60;;;;;;4873260;29;20270;-78
2023/05/24 16:02:08;;;;;;;0.20;0.20;;;37.90;68.80;;;;;;4894354;29;20044;-78
2023/05/24 16:04:34;;;;;;;0.20;0.20;;;37.80;64.70;;;;;;4874604;29;20061;-78
2023/05/24 16:06:59;;;;;;;0.20;0.20;;;36.80;60.90;;;;;;4890376;29;20067;-78
2023/05/24 16:09:26;;;;;;;0.20;0.20;;;;;;;;;;4894027;29;20041;-77
2023/05/24 16:11:55;;;;;;;0.20;0.20;;;;;;;;;;4876003;29;20041;-77
2023/05/24 16:14:28;;;;;;;0.20;0.20;;;;;;;;;;4890567;29;20579;-77
2023/05/24 16:17:13;;;;;;;0.20;0.20;;;;;;;;;;4891053;29;20041;-78
2023/05/24 16:19:51;;;;;;;0.20;0.20;;;;;;;;;;4895558;29;20086;-77
2023/05/24 16:22:30;;;;;;;0.20;0.20;;;;;;;;;;4875421;29;20128;-78
2023/05/24 16:24:56;;;;;;;0.20;0.20;;;;;;;;;;4873298;29;20086;-77
2023/05/24 16:27:25;;;;;;;0.20;0.20;;;;;;;;;;4897623;29;20052;-78